Time;durP1;ratioP1;P1;durP2;ratioP2;P2;SDS_P1;SDS_P2;PMS_P1;PMS_P2;Temp;Humidity;BMP_temperature;BMP_pressure;BME280_temperature;BME280_humidity;BME280_pressure;Samples;Min_cycle;Max_cycle;Signal;HPM_P1;HPM_P2
2021/08/04 00:01:18;;;;;;;6.98;4.70;;;;;;;16.07;76.30;100197.79;128379;1094;23103;-77
2021/08/04 00:03:48;;;;;;;6.18;4.98;;;;;;;16.07;76.77;100200.45;128579;1095;22356;-77
2021/08/04 00:06:33;;;;;;;4.73;4.00;;;;;;;16.05;76.92;100210.48;128614;1095;22343;-76
2021/08/04 00:09:03;;;;;;;4.85;4.38;;;;;;;16.05;76.79;100209.67;128611;1093;22657;-77
2021/08/04 00:11:34;;;;;;;4.65;4.25;;;;;;;16.05;76.48;100209.67;128311;1093;22342;-77
2021/08/04 00:14:04;;;;;;;6.60;4.40;;;;;;;16.05;77.04;100225.66;128623;1095;22442;-77
2021/08/04 00:16:35;;;;;;;7.30;4.57;;;;;;;16.03;76.86;100249.02;128616;1095;22348;-77
2021/08/04 00:19:05;;;;;;;5.55;4.25;;;;;;;15.97;76.68;100277.32;128465;1095;22340;-77
2021/08/04 00:21:35;;;;;;;7.13;5.03;;;;;;;15.97;77.51;100288.80;128298;1094;22344;-78
2021/08/04 00:24:04;;;;;;;9.18;4.20;;;;;;;15.95;77.36;100266.85;128262;1095;22347;-77
2021/08/04 00:26:34;;;;;;;5.73;4.10;;;;;;;15.95;77.37;100287.35;128612;1095;22677;-77
2021/08/04 00:29:04;;;;;;;4.58;3.75;;;;;;;15.92;77.67;100288.58;128620;1095;24479;-76
2021/08/04 00:31:33;;;;;;;6.00;3.93;;;;;;;15.93;77.17;100270.77;128283;1095;25108;-77
2021/08/04 00:34:04;;;;;;;3.78;3.10;;;;;;;15.91;76.91;100286.94;128585;1095;22442;-77
2021/08/04 00:36:33;;;;;;;6.38;5.80;;;;;;;15.90;76.80;100290.64;128269;1095;22382;-77
2021/08/04 00:39:04;;;;;;;3.15;2.83;;;;;;;15.90;76.84;100293.30;128393;1095;22359;-77
2021/08/04 00:41:42;;;;;;;4.53;3.08;;;;;;;15.91;76.69;100281.61;128290;1095;22467;-77
2021/08/04 00:44:12;;;;;;;4.48;3.68;;;;;;;15.88;76.43;100273.22;128316;1095;22363;-78
2021/08/04 00:46:45;;;;;;;4.08;3.15;;;;;;;15.85;76.34;100278.95;128582;1095;24485;-77
2021/08/04 00:49:15;;;;;;;8.48;3.03;;;;;;;15.82;76.10;100279.34;128327;1095;22343;-77
2021/08/04 00:51:45;;;;;;;6.13;3.03;;;;;;;15.78;76.27;100276.28;128303;1095;22370;-77
2021/08/04 00:54:15;;;;;;;3.95;2.85;;;;;;;15.73;75.73;100284.08;128272;1095;22340;-78
2021/08/04 00:56:45;;;;;;;4.70;3.77;;;;;;;15.69;75.85;100275.67;128564;1095;22358;-77
2021/08/04 00:59:15;;;;;;;3.43;2.80;;;;;;;15.68;75.62;100281.19;128290;1095;22366;-77
2021/08/04 01:02:15;;;;;;;4.83;2.67;;;;;;;15.70;75.65;100276.48;128279;1095;22375;-76
2021/08/04 01:04:58;;;;;;;3.73;2.95;;;;;;;15.67;75.99;100271.56;128631;1095;22327;-76
2021/08/04 01:07:38;;;;;;;4.43;2.88;;;;;;;15.64;75.75;100258.63;128643;1094;22343;-76
2021/08/04 01:10:13;;;;;;;4.55;3.20;;;;;;;15.56;75.58;100266.78;128557;1095;22350;-77
2021/08/04 01:12:47;;;;;;;4.20;3.13;;;;;;;15.47;75.63;100264.33;128367;1095;23861;-76
2021/08/04 01:15:17;;;;;;;4.40;3.25;;;;;;;15.37;75.48;100266.56;128255;1093;24237;-77
2021/08/04 01:17:51;;;;;;;3.78;3.18;;;;;;;15.27;75.63;100258.95;128647;1095;22343;-76
2021/08/04 01:20:26;;;;;;;6.53;3.40;;;;;;;15.26;75.79;100254.66;128544;1095;22347;-77
2021/08/04 01:23:13;;;;;;;6.13;3.08;;;;;;;15.29;76.36;100258.73;128327;1095;22340;-76
2021/08/04 01:26:24;;;;;;;9.18;5.03;;;;;;;15.33;76.08;100256.50;128560;1095;22346;-76
2021/08/04 01:28:58;;;;;;;4.18;3.75;;;;;;;15.31;76.04;100262.03;128617;1095;22362;-76
2021/08/04 01:31:32;;;;;;;6.10;3.80;;;;;;;15.29;75.80;100250.76;128599;1095;22386;-76
2021/08/04 01:34:04;;;;;;;4.95;3.73;;;;;;;15.28;76.21;100246.47;128576;1095;24509;-77
2021/08/04 01:36:35;;;;;;;5.30;4.50;;;;;;;15.28;76.22;100246.47;128309;1095;24230;-76
2021/08/04 01:39:06;;;;;;;6.38;3.95;;;;;;;15.29;76.20;100245.44;128273;1095;22365;-77
2021/08/04 01:41:37;;;;;;;4.80;3.58;;;;;;;15.29;76.08;100240.95;128357;1095;24220;-77
2021/08/04 01:44:09;;;;;;;4.15;3.73;;;;;;;15.22;75.90;100239.28;128592;1094;22337;-76
2021/08/04 01:46:39;;;;;;;5.18;3.60;;;;;;;15.23;76.13;100225.79;128319;1095;24214;-76
2021/08/04 01:49:10;;;;;;;4.65;3.95;;;;;;;15.27;76.23;100226.20;128590;1095;24486;-76
2021/08/04 01:51:42;;;;;;;7.45;5.55;;;;;;;15.26;76.37;100222.73;128339;1095;22363;-76
2021/08/04 01:54:13;;;;;;;6.48;4.80;;;;;;;15.28;76.43;100231.31;128585;1095;24493;-76
2021/08/04 01:56:45;;;;;;;5.43;4.20;;;;;;;15.29;76.32;100219.67;128299;1095;22361;-77
2021/08/04 01:59:15;;;;;;;5.45;3.23;;;;;;;15.31;76.44;100211.47;128352;1095;22351;-76
2021/08/04 02:01:44;;;;;;;4.53;3.70;;;;;;;15.33;76.55;100204.11;128587;1095;22362;-77
2021/08/04 02:04:14;;;;;;;4.63;3.73;;;;;;;15.34;76.47;100208.41;128555;1095;22350;-77
2021/08/04 02:07:06;;;;;;;8.08;7.15;;;;;;;15.35;76.51;100202.05;128274;1095;22342;-77
2021/08/04 02:09:51;;;;;;;7.63;5.70;;;;;;;15.35;76.51;100199.39;128317;1095;22810;-76
2021/08/04 02:12:22;;;;;;;8.58;4.13;;;;;;;15.33;76.64;100190.80;128342;1095;24486;-78
2021/08/04 02:15:14;;;;;;;4.53;3.33;;;;;;;15.36;77.07;100187.74;128343;1095;22359;-77
2021/08/04 02:18:19;;;;;;;7.28;4.33;;;;;;;15.37;76.66;100188.55;128602;1095;24489;-77
2021/08/04 02:20:51;;;;;;;4.85;3.78;;;;;;;15.35;77.10;100194.06;128179;1097;22441;-77
2021/08/04 02:23:29;;;;;;;6.35;4.68;;;;;;;15.37;76.83;100181.38;127979;1098;22450;-76
2021/08/04 02:26:07;;;;;;;8.03;4.03;;;;;;;15.40;76.83;100185.49;128151;1098;22807;-76
2021/08/04 02:28:42;;;;;;;6.78;5.00;;;;;;;15.41;76.74;100184.45;127973;1098;22375;-77
2021/08/04 02:31:15;;;;;;;5.43;4.45;;;;;;;15.41;76.83;100179.95;128024;1098;22368;-76
2021/08/04 02:33:45;;;;;;;4.58;4.15;;;;;;;15.43;76.96;100174.44;128032;1098;22357;-76
2021/08/04 02:36:16;;;;;;;4.63;3.70;;;;;;;15.44;76.90;100168.90;127987;1098;22356;-76
2021/08/04 02:38:47;;;;;;;5.95;4.50;;;;;;;15.47;76.94;100175.66;128077;1098;22361;-77
2021/08/04 02:41:17;;;;;;;6.78;4.93;;;;;;;15.46;76.74;100168.68;128082;1098;22357;-76
2021/08/04 02:43:47;;;;;;;7.30;5.93;;;;;;;15.46;76.74;100169.52;128034;1098;24236;-77
2021/08/04 02:46:17;;;;;;;5.80;5.18;;;;;;;15.47;76.78;100160.50;128045;1098;22391;-77
2021/08/04 02:48:47;;;;;;;5.33;4.65;;;;;;;15.49;76.96;100162.95;127965;1098;22447;-77
2021/08/04 02:51:22;;;;;;;4.80;4.40;;;;;;;15.46;77.00;100169.52;128225;1098;22376;-76
2021/08/04 02:53:57;;;;;;;4.98;4.48;;;;;;;15.48;76.84;100163.98;128024;1098;22375;-76
2021/08/04 02:56:27;;;;;;;7.33;4.95;;;;;;;15.49;77.05;100179.77;128056;1095;23112;-76
2021/08/04 02:58:57;;;;;;;4.60;4.20;;;;;;;15.50;76.97;100175.26;128293;1095;22348;-76
2021/08/04 03:01:27;;;;;;;4.70;4.30;;;;;;;15.51;76.92;100171.56;128265;1095;22347;-77
2021/08/04 03:03:57;;;;;;;6.33;5.50;;;;;;;15.49;76.90;100166.45;128318;1095;22467;-77
2021/08/04 03:06:27;;;;;;;9.10;5.65;;;;;;;15.50;77.06;100175.26;128257;1095;23164;-76
2021/08/04 03:08:56;;;;;;;7.38;5.00;;;;;;;15.51;77.07;100177.70;128608;1095;22362;-76
2021/08/04 03:11:26;;;;;;;4.58;4.15;;;;;;;15.53;77.27;100177.52;128277;1095;22347;-76
2021/08/04 03:13:56;;;;;;;5.38;4.78;;;;;;;15.53;76.93;100183.66;128270;1095;24491;-76
2021/08/04 03:16:26;;;;;;;6.00;4.67;;;;;;;15.54;76.92;100181.80;128567;1095;22778;-77
2021/08/04 03:18:55;;;;;;;5.23;4.30;;;;;;;15.56;76.82;100176.27;128295;1095;24159;-76
2021/08/04 03:21:26;;;;;;;5.25;4.78;;;;;;;15.57;76.85;100185.91;128249;1095;22414;-76
2021/08/04 03:23:56;;;;;;;6.65;5.63;;;;;;;15.57;76.88;100188.57;128290;1095;22347;-76
2021/08/04 03:26:25;;;;;;;6.23;4.98;;;;;;;15.54;76.61;100195.12;128203;1098;25021;-76
2021/08/04 03:28:55;;;;;;;6.00;4.73;;;;;;;15.48;76.67;100199.41;128199;1098;22398;-77
2021/08/04 03:31:25;;;;;;;7.85;6.10;;;;;;;15.43;76.84;100203.72;127994;1098;22360;-77
2021/08/04 03:33:55;;;;;;;5.58;4.98;;;;;;;15.39;76.67;100202.46;127951;1098;22526;-77
2021/08/04 03:36:25;;;;;;;10.33;5.05;;;;;;;15.36;77.57;100210.84;128196;1098;22353;-77
2021/08/04 03:38:55;;;;;;;8.83;5.25;;;;;;;15.30;77.17;100213.31;128160;1098;22402;-77
2021/08/04 03:41:24;;;;;;;10.85;5.45;;;;;;;15.24;77.57;100218.63;128197;1097;24249;-77
2021/08/04 03:43:54;;;;;;;7.28;5.28;;;;;;;15.22;77.69;100221.47;128173;1095;22374;-77
2021/08/04 03:46:24;;;;;;;8.15;5.80;;;;;;;15.18;77.97;100220.23;128269;1095;22346;-77
2021/08/04 03:48:53;;;;;;;8.08;5.68;;;;;;;15.18;77.98;100224.74;128270;1095;22366;-77
2021/08/04 03:51:23;;;;;;;9.50;6.90;;;;;;;15.20;77.99;100223.53;128275;1095;22371;-77
2021/08/04 03:53:52;;;;;;;14.65;6.33;;;;;;;15.19;77.94;100219.20;128228;1095;22391;-77
2021/08/04 03:56:22;;;;;;;8.13;6.00;;;;;;;15.18;77.96;100222.08;128579;1095;22344;-77
2021/08/04 03:58:52;;;;;;;9.80;6.98;;;;;;;15.14;77.71;100228.83;128580;1095;22363;-76
2021/08/04 04:01:21;;;;;;;7.58;6.75;;;;;;;15.10;78.15;100228.41;128248;1095;24990;-76
2021/08/04 04:03:51;;;;;;;7.28;6.50;;;;;;;15.10;78.28;100227.60;128557;1095;24498;-77
2021/08/04 04:06:21;;;;;;;7.48;5.98;;;;;;;15.12;78.35;100220.22;128558;1095;22371;-76
2021/08/04 04:08:50;;;;;;;6.78;6.08;;;;;;;15.14;78.57;100229.65;128244;1093;22343;-77
2021/08/04 04:11:20;;;;;;;6.58;5.90;;;;;;;15.12;78.10;100226.36;128248;1095;24515;-77
2021/08/04 04:13:50;;;;;;;7.23;6.30;;;;;;;15.13;78.28;100222.70;128217;1095;22343;-75
2021/08/04 04:16:20;;;;;;;7.83;5.48;;;;;;;15.11;78.11;100218.59;128257;1095;22347;-76
2021/08/04 04:18:50;;;;;;;9.20;6.28;;;;;;;15.09;78.11;100223.27;128282;1095;22363;-76
2021/08/04 04:21:20;;;;;;;6.13;5.48;;;;;;;15.10;78.47;100216.95;128278;1095;22346;-76
2021/08/04 04:23:49;;;;;;;6.88;5.80;;;;;;;15.10;78.03;100217.77;128243;1095;22348;-77
2021/08/04 04:26:19;;;;;;;6.48;5.70;;;;;;;15.09;78.50;100218.77;128283;1095;23106;-76
2021/08/04 04:28:48;;;;;;;6.35;5.75;;;;;;;15.12;78.69;100217.56;128262;1094;22348;-76
2021/08/04 04:31:19;;;;;;;6.63;5.78;;;;;;;15.14;78.48;100223.51;128554;1095;22346;-76
2021/08/04 04:33:48;;;;;;;12.35;6.10;;;;;;;15.16;78.55;100218.79;128302;1095;24501;-76
2021/08/04 04:36:18;;;;;;;8.63;6.25;;;;;;;15.21;78.76;100230.48;128255;1095;22803;-76
2021/08/04 04:38:47;;;;;;;7.15;6.45;;;;;;;15.28;78.82;100239.30;128255;1095;22365;-76
2021/08/04 04:41:17;;;;;;;8.30;6.88;;;;;;;15.35;78.95;100236.65;128278;1095;22389;-75
2021/08/04 04:43:47;;;;;;;11.45;8.43;;;;;;;15.42;78.92;100247.31;128290;1095;22393;-76
2021/08/04 04:46:16;;;;;;;10.33;8.85;;;;;;;15.49;79.09;100242.81;128259;1095;22368;-75
2021/08/04 04:48:46;;;;;;;12.83;11.60;;;;;;;15.52;78.29;100240.56;128265;1095;22349;-76
2021/08/04 04:51:15;;;;;;;15.68;14.28;;;;;;;15.53;78.42;100239.56;128614;1095;22346;-77
2021/08/04 04:53:45;;;;;;;14.27;12.87;;;;;;;15.56;78.97;100250.81;128564;1095;22343;-76
2021/08/04 04:56:14;;;;;;;8.93;8.13;;;;;;;15.57;78.30;100241.82;128259;1094;22368;-77
2021/08/04 04:58:44;;;;;;;11.90;8.45;;;;;;;15.55;77.99;100247.33;128546;1095;24991;-76
2021/08/04 05:01:14;;;;;;;10.08;7.85;;;;;;;15.53;78.03;100252.06;128628;1094;22356;-77
2021/08/04 05:03:43;;;;;;;8.83;7.65;;;;;;;15.48;77.93;100257.97;128314;1095;22340;-76
2021/08/04 05:06:13;;;;;;;11.00;7.83;;;;;;;15.46;77.95;100260.03;128555;1095;22699;-76
2021/08/04 05:08:43;;;;;;;11.15;6.85;;;;;;;15.42;78.01;100258.77;128319;1095;22346;-76
2021/08/04 05:11:13;;;;;;;7.55;6.73;;;;;;;15.43;78.23;100265.76;128576;1093;22354;-77
2021/08/04 05:13:42;;;;;;;7.38;6.40;;;;;;;15.50;78.10;100268.44;128575;1095;22363;-77
2021/08/04 05:16:12;;;;;;;5.78;5.28;;;;;;;15.59;78.63;100261.88;128294;1095;22350;-77
2021/08/04 05:18:41;;;;;;;6.55;5.85;;;;;;;15.69;78.50;100266.84;128559;1095;22350;-77
2021/08/04 05:21:11;;;;;;;10.15;5.15;;;;;;;15.73;78.53;100263.58;128319;1095;22347;-77
2021/08/04 05:23:41;;;;;;;10.10;6.28;;;;;;;15.79;78.11;100266.44;128560;1095;22793;-77
2021/08/04 05:26:10;;;;;;;9.25;6.20;;;;;;;15.81;78.01;100267.06;128284;1095;22353;-77
2021/08/04 05:28:40;;;;;;;10.75;5.95;;;;;;;15.82;77.70;100263.37;128578;1095;24242;-77
2021/08/04 05:31:09;;;;;;;9.53;5.58;;;;;;;15.83;77.77;100257.85;128327;1095;22359;-78
2021/08/04 05:33:39;;;;;;;5.73;5.13;;;;;;;15.86;78.09;100265.44;128275;1095;22370;-77
2021/08/04 05:36:08;;;;;;;5.73;5.20;;;;;;;15.99;78.33;100275.25;128582;1095;22359;-76
2021/08/04 05:38:38;;;;;;;6.80;5.30;;;;;;;16.05;77.89;100278.95;128240;1095;22347;-77
2021/08/04 05:41:08;;;;;;;8.03;6.13;;;;;;;16.10;77.38;100271.17;128230;1095;22385;-76
2021/08/04 05:43:37;;;;;;;9.93;5.83;;;;;;;16.16;77.71;100278.32;128288;1094;22344;-76
2021/08/04 05:46:07;;;;;;;7.00;6.30;;;;;;;16.26;77.77;100286.75;128266;1095;22355;-77
2021/08/04 05:48:37;;;;;;;5.85;5.20;;;;;;;16.36;77.48;100279.15;128312;1095;22430;-76
2021/08/04 05:51:06;;;;;;;10.63;5.33;;;;;;;16.48;77.30;100280.13;128607;1094;22365;-76
2021/08/04 05:53:36;;;;;;;6.28;5.55;;;;;;;16.58;77.05;100277.04;128557;1095;22805;-76
2021/08/04 05:56:05;;;;;;;7.65;5.50;;;;;;;16.67;76.69;100273.13;128291;1095;22803;-77
2021/08/04 05:58:35;;;;;;;13.58;5.25;;;;;;;16.76;76.26;100273.76;128295;1095;22343;-77
2021/08/04 06:01:05;;;;;;;10.20;7.23;;;;;;;16.84;76.09;100276.18;128578;1095;24509;-76
2021/08/04 06:03:36;;;;;;;9.17;6.43;;;;;;;16.90;75.72;100278.02;128698;1095;24227;-76
2021/08/04 06:06:06;;;;;;;8.70;4.90;;;;;;;16.94;75.74;100283.74;128378;1095;22362;-76
2021/08/04 06:08:36;;;;;;;6.90;5.80;;;;;;;16.97;75.47;100277.98;128404;1095;23832;-76
2021/08/04 06:11:06;;;;;;;10.37;5.50;;;;;;;17.03;75.30;100271.80;128638;1095;22340;-75
2021/08/04 06:13:36;;;;;;;8.63;5.53;;;;;;;17.09;75.24;100286.13;128587;1093;24473;-75
2021/08/04 06:16:05;;;;;;;6.90;5.70;;;;;;;17.13;75.20;100282.84;128255;1095;22397;-77
2021/08/04 06:18:35;;;;;;;7.60;6.08;;;;;;;17.15;74.95;100280.77;128627;1095;24951;-76
2021/08/04 06:21:05;;;;;;;6.13;5.53;;;;;;;17.15;74.80;100287.95;128590;1095;22339;-76
2021/08/04 06:23:36;;;;;;;7.95;4.75;;;;;;;17.05;74.50;100291.08;128549;1095;22336;-76
2021/08/04 06:26:05;;;;;;;7.28;5.53;;;;;;;16.96;74.29;100294.19;128650;1095;23370;-76
2021/08/04 06:28:44;;;;;;;8.28;5.60;;;;;;;16.85;74.35;100291.15;128663;1094;22357;-76
2021/08/04 06:31:14;;;;;;;8.73;5.48;;;;;;;16.77;74.90;100301.25;128324;1095;22349;-76
2021/08/04 06:33:44;;;;;;;9.48;6.90;;;;;;;16.76;74.98;100295.09;128302;1095;22845;-76
2021/08/04 06:36:14;;;;;;;9.70;6.18;;;;;;;16.76;75.14;100296.92;128581;1095;22348;-76
2021/08/04 06:38:43;;;;;;;9.20;7.80;;;;;;;16.77;75.47;100294.06;128608;1095;22367;-76
2021/08/04 06:41:13;;;;;;;9.33;5.88;;;;;;;16.78;75.44;100290.36;128295;1095;22354;-76
2021/08/04 06:43:43;;;;;;;9.43;5.90;;;;;;;16.79;75.41;100297.31;128341;1095;24488;-77
2021/08/04 06:46:14;;;;;;;6.00;5.28;;;;;;;16.78;75.29;100306.36;128273;1095;22360;-76
2021/08/04 06:48:44;;;;;;;8.33;5.45;;;;;;;16.73;75.19;100306.16;128320;1095;22443;-76
2021/08/04 06:51:16;;;;;;;8.73;5.38;;;;;;;16.72;75.62;100304.49;128564;1093;22341;-76
2021/08/04 06:53:49;;;;;;;7.75;5.45;;;;;;;16.74;75.67;100310.45;128684;1093;22375;-75
2021/08/04 06:56:18;;;;;;;9.68;5.58;;;;;;;16.77;75.61;100309.25;128330;1095;22343;-76
2021/08/04 06:58:48;;;;;;;7.20;4.77;;;;;;;16.80;75.85;100319.51;128636;1095;22343;-75
2021/08/04 07:01:18;;;;;;;7.20;4.25;;;;;;;16.84;75.75;100316.20;128299;1095;22365;-75
2021/08/04 07:03:48;;;;;;;4.63;3.43;;;;;;;16.90;75.66;100306.55;128557;1095;24236;-75
2021/08/04 07:06:18;;;;;;;12.23;4.08;;;;;;;16.95;75.63;100317.39;128573;1095;22375;-76
2021/08/04 07:08:47;;;;;;;4.58;3.95;;;;;;;17.01;75.38;100316.55;128546;1095;22363;-76
2021/08/04 07:11:22;;;;;;;6.93;4.47;;;;;;;17.06;74.84;100315.91;128234;1095;22359;-77
2021/08/04 07:13:51;;;;;;;7.40;4.50;;;;;;;17.09;74.84;100310.16;128364;1095;22359;-76
2021/08/04 07:16:21;;;;;;;5.53;4.35;;;;;;;17.14;74.58;100315.69;128290;1095;24508;-76
2021/08/04 07:18:51;;;;;;;7.40;5.28;;;;;;;17.16;74.59;100325.13;128284;1095;22486;-76
2021/08/04 07:21:21;;;;;;;5.70;4.83;;;;;;;17.13;73.94;100316.73;128545;1095;22364;-76
2021/08/04 07:23:50;;;;;;;6.08;4.88;;;;;;;17.07;74.12;100318.39;128263;1093;23415;-76
2021/08/04 07:26:20;;;;;;;6.70;5.08;;;;;;;17.02;74.30;100323.52;127991;1098;22361;-75
2021/08/04 07:28:49;;;;;;;6.18;4.85;;;;;;;17.04;74.45;100323.33;127901;1098;22371;-75
2021/08/04 07:31:19;;;;;;;9.25;6.30;;;;;;;17.07;74.76;100317.57;127926;1098;24609;-75
2021/08/04 07:33:51;;;;;;;7.35;4.95;;;;;;;17.10;74.74;100322.49;127932;1098;23215;-76
2021/08/04 07:36:20;;;;;;;5.53;4.55;;;;;;;17.08;74.62;100328.02;127895;1098;22374;-76
2021/08/04 07:38:51;;;;;;;4.53;3.88;;;;;;;17.10;74.88;100325.16;127889;1098;23257;-78
2021/08/04 07:41:21;;;;;;;6.48;5.00;;;;;;;17.13;74.54;100327.41;128090;1098;23952;-76
2021/08/04 07:43:51;;;;;;;5.58;5.03;;;;;;;17.12;74.60;100328.42;127941;1098;22369;-76
2021/08/04 07:46:23;;;;;;;6.45;4.13;;;;;;;17.13;74.39;100325.55;128205;1095;22442;-76
2021/08/04 07:48:55;;;;;;;5.53;4.70;;;;;;;17.10;74.82;100328.64;128620;1093;22443;-75
2021/08/04 07:51:25;;;;;;;5.33;4.83;;;;;;;17.13;74.13;100330.08;128622;1094;22354;-75
2021/08/04 07:53:55;;;;;;;8.23;5.70;;;;;;;17.12;74.38;100333.75;128540;1095;22359;-77
2021/08/04 07:56:25;;;;;;;8.85;6.80;;;;;;;17.11;74.66;100326.79;128258;1095;22367;-75
2021/08/04 07:59:01;;;;;;;7.28;5.78;;;;;;;17.15;75.18;100331.48;128603;1093;22366;-76
2021/08/04 08:01:32;;;;;;;9.78;6.05;;;;;;;17.14;74.82;100332.52;128615;1095;24237;-77
2021/08/04 08:04:02;;;;;;;6.85;6.15;;;;;;;17.11;74.57;100334.80;128027;1098;22365;-75
2021/08/04 08:06:31;;;;;;;7.20;6.50;;;;;;;17.07;74.90;100336.25;128333;1098;22358;-76
2021/08/04 08:09:01;;;;;;;7.70;5.98;;;;;;;17.02;74.94;100338.72;128175;1096;24378;-75
2021/08/04 08:11:31;;;;;;;10.78;6.43;;;;;;;17.02;75.18;100325.38;128154;1098;22348;-76
2021/08/04 08:14:00;;;;;;;6.98;6.13;;;;;;;17.08;75.23;100341.37;128167;1098;22398;-75
2021/08/04 08:16:30;;;;;;;9.55;6.40;;;;;;;17.17;75.27;100336.63;128128;1097;22360;-75
2021/08/04 08:19:00;;;;;;;7.95;6.25;;;;;;;17.30;75.58;100333.90;128186;1098;22464;-75
2021/08/04 08:21:29;;;;;;;6.13;5.35;;;;;;;17.46;75.61;100339.77;128218;1095;22381;-76
2021/08/04 08:23:59;;;;;;;8.03;6.20;;;;;;;17.62;75.13;100331.26;128281;1095;22363;-76
2021/08/04 08:26:35;;;;;;;5.80;5.23;;;;;;;17.75;74.90;100335.71;128302;1095;22363;-76
2021/08/04 08:29:06;;;;;;;6.98;5.38;;;;;;;17.82;74.16;100326.64;128202;1098;22366;-76
2021/08/04 08:31:37;;;;;;;5.90;5.30;;;;;;;17.91;73.85;100334.41;128204;1098;22434;-75
2021/08/04 08:34:07;;;;;;;7.65;5.78;;;;;;;17.92;73.07;100334.19;128225;1098;24425;-77
2021/08/04 08:36:38;;;;;;;4.95;4.40;;;;;;;17.90;72.46;100330.92;127944;1098;22378;-76
2021/08/04 08:39:10;;;;;;;4.95;4.40;;;;;;;17.79;72.22;100335.11;128305;1098;22348;-76
2021/08/04 08:41:40;;;;;;;6.55;4.90;;;;;;;17.75;72.19;100331.18;128200;1098;24504;-76
2021/08/04 08:44:11;;;;;;;9.28;5.23;;;;;;;17.75;72.25;100336.52;128133;1098;22373;-75
2021/08/04 08:46:41;;;;;;;5.55;5.05;;;;;;;17.77;72.54;100333.69;128214;1095;22428;-76
2021/08/04 08:49:11;;;;;;;9.10;6.00;;;;;;;17.77;72.62;100326.48;128250;1095;22343;-75
2021/08/04 08:51:41;;;;;;;6.08;5.20;;;;;;;17.78;72.55;100333.45;128550;1095;22362;-76
2021/08/04 08:54:11;;;;;;;6.85;5.68;;;;;;;17.80;72.64;100326.05;128598;1095;22344;-75
2021/08/04 08:56:42;;;;;;;10.53;6.53;;;;;;;17.86;72.75;100335.89;128220;1095;22334;-78
2021/08/04 08:59:16;;;;;;;6.20;5.60;;;;;;;17.95;73.11;100332.94;128553;1095;22349;-75
2021/08/04 09:01:47;;;;;;;8.98;7.93;;;;;;;18.02;72.72;100333.70;128580;1095;22367;-76
2021/08/04 09:04:17;;;;;;;7.60;6.30;;;;;;;18.10;72.64;100330.78;128303;1095;22346;-76
2021/08/04 09:06:55;;;;;;;8.40;7.65;;;;;;;18.14;72.17;100333.84;128555;1095;22346;-77
2021/08/04 09:09:28;;;;;;;8.55;7.85;;;;;;;18.15;72.06;100338.14;128358;1095;24495;-76
2021/08/04 09:12:16;;;;;;;6.23;3.73;;;;;;;18.11;71.37;100329.73;128298;1093;22349;-76
2021/08/04 09:14:46;;;;;;;5.13;4.70;;;;;;;18.05;71.13;100338.62;128343;1095;22374;-77
2021/08/04 09:17:17;;;;;;;6.10;5.50;;;;;;;18.03;70.69;100327.34;128253;1093;22373;-76
2021/08/04 09:19:51;;;;;;;5.03;4.63;;;;;;;18.01;70.98;100329.41;128276;1095;22366;-77
2021/08/04 09:22:24;;;;;;;6.28;5.68;;;;;;;17.99;71.07;100326.93;128702;1095;24185;-77
2021/08/04 09:24:57;;;;;;;5.75;5.25;;;;;;;17.98;70.89;100324.49;128619;1094;22362;-77
2021/08/04 09:27:53;;;;;;;8.08;5.20;;;;;;;17.96;70.79;100334.56;128607;1095;22346;-76
2021/08/04 09:30:32;;;;;;;4.93;4.38;;;;;;;17.92;70.98;100320.00;128553;1095;22347;-76
2021/08/04 09:33:25;;;;;;;4.20;3.80;;;;;;;17.92;71.05;100328.02;128807;1095;22370;-78
2021/08/04 09:35:57;;;;;;;5.08;3.78;;;;;;;17.93;71.33;100318.99;128268;1095;23356;-76
2021/08/04 09:38:27;;;;;;;5.70;4.15;;;;;;;17.94;71.18;100324.11;128533;1095;22347;-77
2021/08/04 09:41:18;;;;;;;4.85;4.18;;;;;;;17.95;71.28;100327.59;128535;1095;24488;-76
2021/08/04 09:44:03;;;;;;;5.00;4.25;;;;;;;17.96;71.15;100319.38;128283;1095;22347;-75
2021/08/04 09:46:33;;;;;;;3.98;3.58;;;;;;;18.05;71.22;100327.92;128590;1095;24521;-76
2021/08/04 09:49:17;;;;;;;3.23;2.93;;;;;;;18.10;71.31;100325.44;128289;1095;24288;-76
2021/08/04 09:52:12;;;;;;;2.50;2.25;;;;;;;18.17;71.11;100326.20;128289;1093;24488;-77
2021/08/04 09:54:43;;;;;;;3.15;2.48;;;;;;;18.32;71.30;100329.34;128617;1095;22908;-77
2021/08/04 09:57:14;;;;;;;2.68;2.28;;;;;;;18.46;70.82;100332.73;128343;1095;22346;-77
2021/08/04 10:00:09;;;;;;;5.15;2.90;;;;;;;18.56;70.29;100333.05;128331;1095;22345;-76
2021/08/04 10:02:39;;;;;;;5.50;3.33;;;;;;;18.55;69.94;100333.26;128656;1095;24489;-77
2021/08/04 10:05:27;;;;;;;4.73;3.30;;;;;;;18.54;69.25;100328.95;128294;1095;22347;-77
2021/08/04 10:08:11;;;;;;;3.75;3.35;;;;;;;18.50;69.81;100331.25;128657;1094;24243;-76
2021/08/04 10:10:54;;;;;;;2.95;2.65;;;;;;;18.51;69.54;100332.07;128598;1095;22359;-77
2021/08/04 10:13:28;;;;;;;3.63;3.00;;;;;;;18.57;70.15;100332.00;128320;1095;22350;-77
2021/08/04 10:16:02;;;;;;;3.23;2.50;;;;;;;18.66;69.30;100332.55;128251;1095;22347;-76
2021/08/04 10:18:39;;;;;;;2.58;2.23;;;;;;;18.68;69.35;100327.78;128272;1095;22351;-76
2021/08/04 10:21:13;;;;;;;4.08;2.20;;;;;;;18.72;68.86;100325.50;128464;1095;24495;-76
2021/08/04 10:23:51;;;;;;;2.88;2.63;;;;;;;18.74;69.15;100326.11;128512;1093;22342;-76
2021/08/04 10:26:22;;;;;;;6.35;2.75;;;;;;;18.83;69.11;100318.59;128339;1095;22349;-77
2021/08/04 10:28:55;;;;;;;4.63;2.65;;;;;;;18.86;68.96;100313.64;128592;1093;22833;-76
2021/08/04 10:31:26;;;;;;;3.98;2.80;;;;;;;18.91;68.52;100323.66;128235;1095;22363;-77
2021/08/04 10:33:58;;;;;;;4.05;3.45;;;;;;;18.90;68.44;100320.17;128573;1095;22362;-76
2021/08/04 10:36:34;;;;;;;3.20;2.73;;;;;;;18.95;68.91;100316.81;128442;1095;24051;-77
2021/08/04 10:39:09;;;;;;;3.30;2.60;;;;;;;19.01;68.86;100313.25;128233;1095;22370;-77
2021/08/04 10:41:44;;;;;;;5.55;2.83;;;;;;;19.11;68.95;100324.25;128302;1095;22352;-76
2021/08/04 10:44:24;;;;;;;3.93;2.90;;;;;;;19.28;68.76;100321.77;128324;1095;22487;-76
2021/08/04 10:46:54;;;;;;;3.30;3.00;;;;;;;19.40;68.55;100319.97;128234;1095;22371;-77
2021/08/04 10:49:34;;;;;;;3.30;3.00;;;;;;;19.72;68.61;100315.20;128362;1095;22366;-76
2021/08/04 10:52:11;;;;;;;5.28;3.75;;;;;;;20.14;67.36;100312.50;128298;1095;24245;-76
2021/08/04 10:55:05;;;;;;;3.13;2.80;;;;;;;20.19;65.45;100320.69;128774;1094;22351;-75
2021/08/04 10:58:03;;;;;;;3.18;2.68;;;;;;;20.24;65.53;100309.25;128528;1095;22363;-76
2021/08/04 11:00:36;;;;;;;3.30;2.90;;;;;;;20.32;65.05;100306.20;128643;1093;24152;-76
2021/08/04 11:03:44;;;;;;;3.10;2.80;;;;;;;20.34;64.71;100308.67;128392;1095;22366;-77
2021/08/04 11:06:15;;;;;;;3.20;2.90;;;;;;;20.56;65.30;100301.70;128668;1095;22343;-76
2021/08/04 11:08:47;;;;;;;3.08;2.75;;;;;;;20.68;64.72;100305.17;128362;1093;23238;-76
2021/08/04 11:12:00;;;;;;;3.43;2.70;;;;;;;20.76;64.27;100304.02;128600;1094;24875;-77
2021/08/04 11:14:54;;;;;;;3.65;3.05;;;;;;;20.82;63.16;100304.92;128645;1095;23651;-77
2021/08/04 11:17:53;;;;;;;4.20;3.50;;;;;;;20.65;62.94;100299.46;128494;1095;22359;-77
2021/08/04 11:20:24;;;;;;;4.00;3.20;;;;;;;20.61;63.32;100299.13;128422;1093;22365;-76
2021/08/04 11:22:53;;;;;;;3.98;3.55;;;;;;;20.65;63.61;100307.52;128344;1095;24492;-76
2021/08/04 11:25:41;;;;;;;4.90;2.80;;;;;;;20.65;63.49;100297.59;128333;1093;22343;-76
2021/08/04 11:28:15;;;;;;;4.10;3.30;;;;;;;20.59;63.10;100305.77;127958;1097;22356;-77
2021/08/04 11:30:56;;;;;;;3.73;3.38;;;;;;;20.53;62.97;100296.00;128247;1098;22378;-76
2021/08/04 11:33:27;;;;;;;10.33;3.73;;;;;;;20.53;63.19;100296.00;128197;1098;22365;-77
2021/08/04 11:36:11;;;;;;;4.30;3.70;;;;;;;20.45;62.89;100294.43;128188;1098;22372;-76
2021/08/04 11:39:06;;;;;;;2.85;2.50;;;;;;;20.39;62.78;100295.36;128150;1098;22388;-76
2021/08/04 11:41:48;;;;;;;4.15;3.00;;;;;;;20.34;62.69;100292.58;127934;1101;22436;-76
2021/08/04 11:44:26;;;;;;;;;;;;;;;20.26;62.40;100299.12;127896;1101;25855;-76